This is the latest recevied weather packets stored in our database for station/object KK7KHO. If no packets are shown the sender has not sent any weather packets the latest 10 day(s).
| Time | Temp. | Humidity | Pressure | Rain* | Wind** | Luminosity | Snow |
|---|---|---|---|---|---|---|---|
| 1777571809 | 16.67° C | 79% | 1019.9 hPa | 0 mm | - | 495 W/m² | - |
| 1777571506 | 17.22° C | 77% | 1020 hPa | 0 mm | - | 487 W/m² | - |
| 1777571203 | 17.22° C | 76% | 1020.1 hPa | 0 mm | - | 526 W/m² | - |
| 1777570898 | 16.11° C | 79% | 1020.1 hPa | 0 mm | - | 547 W/m² | - |
| 1777570594 | 16.67° C | 77% | 1020 hPa | 0 mm | - | 497 W/m² | - |
| 1777570292 | 16.11° C | 78% | 1020.1 hPa | 0 mm | - | 518 W/m² | - |
| 1777569987 | 15.56° C | 81% | 1020.3 hPa | 0 mm | - | 448 W/m² | - |
| 1777569683 | 15.56° C | 80% | 1020.2 hPa | 0 mm | - | 388 W/m² | - |
| 1777569379 | 15.56° C | 81% | 1020.4 hPa | 0 mm | - | 342 W/m² | - |
| 1777569075 | 15° C | 81% | 1020.3 hPa | 0 mm | - | 341 W/m² | - |
| 1777568772 | 15° C | 81% | 1020.4 hPa | 0 mm | - | 436 W/m² | - |
| 1777568470 | 15° C | 81% | 1020.7 hPa | 0 mm | - | 445 W/m² | - |
| 1777568166 | 14.44° C | 83% | 1020.6 hPa | 0 mm | - | 451 W/m² | - |
| 1777567863 | 14.44° C | 82% | 1020.7 hPa | 0 mm | - | 434 W/m² | - |
| 1777567559 | 13.89° C | 83% | 1020.6 hPa | 0 mm | - | 415 W/m² | - |
| 1777567257 | 13.33° C | 84% | 1020.6 hPa | 0 mm | - | 328 W/m² | - |
| 1777566955 | 13.33° C | 85% | 1020.7 hPa | 0 mm | - | 378 W/m² | - |
| 1777566652 | 13.33° C | 85% | 1020.8 hPa | 0 mm | - | 346 W/m² | - |
| 1777566350 | 12.78° C | 86% | 1020.8 hPa | 0 mm | - | 306 W/m² | - |
| 1777566047 | 12.78° C | 85% | 1020.8 hPa | 0 mm | - | 292 W/m² | - |
| 1777565743 | 12.78° C | 87% | 1020.9 hPa | 0 mm | - | 293 W/m² | - |
| 1777565438 | 12.78° C | 86% | 1020.9 hPa | 0 mm | - | 289 W/m² | - |
| 1777565135 | 12.78° C | 87% | 1020.8 hPa | 0 mm | - | 300 W/m² | - |
| 1777564831 | 12.78° C | 88% | 1020.8 hPa | 0 mm | - | 284 W/m² | - |
| 1777564527 | 12.22° C | 90% | 1021 hPa | 0 mm | - | 277 W/m² | - |
* Rain latest hour (hover to see other rain measurements)
** Current wind speed in m/s (hover to see current wind gust speed)